sensor_id;sensor_type;location;lat;lon;timestamp;P1;durP1;ratioP1;P2;durP2;ratioP2
14939;SDS011;11825;51.898;8.202;2024-01-30T00:04:02;19.50;;;16.97;;
14939;SDS011;11825;51.898;8.202;2024-01-30T00:21:01;21.00;;;18.80;;
14939;SDS011;11825;51.898;8.202;2024-01-30T00:26:35;19.40;;;16.97;;
14939;SDS011;11825;51.898;8.202;2024-01-30T00:32:03;17.87;;;15.93;;
14939;SDS011;11825;51.898;8.202;2024-01-30T00:37:25;19.20;;;17.20;;
14939;SDS011;11825;51.898;8.202;2024-01-30T00:42:43;17.23;;;15.40;;
14939;SDS011;11825;51.898;8.202;2024-01-30T00:48:15;18.40;;;16.50;;
14939;SDS011;11825;51.898;8.202;2024-01-30T01:00:05;18.80;;;16.80;;
14939;SDS011;11825;51.898;8.202;2024-01-30T01:05:47;18.27;;;15.47;;
14939;SDS011;11825;51.898;8.202;2024-01-30T01:11:33;17.83;;;15.67;;
14939;SDS011;11825;51.898;8.202;2024-01-30T01:17:09;19.13;;;17.20;;
14939;SDS011;11825;51.898;8.202;2024-01-30T01:27:48;23.63;;;18.57;;
14939;SDS011;11825;51.898;8.202;2024-01-30T01:33:11;19.13;;;16.10;;
14939;SDS011;11825;51.898;8.202;2024-01-30T01:38:30;17.70;;;15.87;;
14939;SDS011;11825;51.898;8.202;2024-01-30T01:43:58;17.10;;;15.30;;
14939;SDS011;11825;51.898;8.202;2024-01-30T01:49:40;15.33;;;13.60;;
14939;SDS011;11825;51.898;8.202;2024-01-30T02:01:05;23.70;;;15.37;;
14939;SDS011;11825;51.898;8.202;2024-01-30T02:06:18;17.03;;;14.93;;
14939;SDS011;11825;51.898;8.202;2024-01-30T02:11:45;14.70;;;13.27;;
14939;SDS011;11825;51.898;8.202;2024-01-30T02:17:13;15.73;;;13.73;;
14939;SDS011;11825;51.898;8.202;2024-01-30T02:22:28;14.17;;;12.73;;
14939;SDS011;11825;51.898;8.202;2024-01-30T02:28:19;15.37;;;12.73;;
14939;SDS011;11825;51.898;8.202;2024-01-30T02:33:38;16.90;;;13.47;;
14939;SDS011;11825;51.898;8.202;2024-01-30T02:39:00;16.20;;;13.77;;
14939;SDS011;11825;51.898;8.202;2024-01-30T02:44:15;14.23;;;12.03;;
14939;SDS011;11825;51.898;8.202;2024-01-30T02:49:42;14.87;;;12.80;;
14939;SDS011;11825;51.898;8.202;2024-01-30T02:55:30;13.93;;;12.53;;
14939;SDS011;11825;51.898;8.202;2024-01-30T03:07:23;15.20;;;13.37;;
14939;SDS011;11825;51.898;8.202;2024-01-30T03:12:47;14.00;;;12.50;;
14939;SDS011;11825;51.898;8.202;2024-01-30T03:24:19;16.23;;;12.97;;
14939;SDS011;11825;51.898;8.202;2024-01-30T03:29:43;16.70;;;13.13;;
14939;SDS011;11825;51.898;8.202;2024-01-30T03:35:23;14.90;;;13.07;;
14939;SDS011;11825;51.898;8.202;2024-01-30T03:40:51;15.07;;;11.90;;
14939;SDS011;11825;51.898;8.202;2024-01-30T03:51:40;13.93;;;12.23;;
14939;SDS011;11825;51.898;8.202;2024-01-30T03:56:51;18.10;;;12.37;;
14939;SDS011;11825;51.898;8.202;2024-01-30T04:02:12;15.03;;;13.53;;
14939;SDS011;11825;51.898;8.202;2024-01-30T04:07:42;15.07;;;11.93;;
14939;SDS011;11825;51.898;8.202;2024-01-30T04:12:53;13.50;;;12.07;;
14939;SDS011;11825;51.898;8.202;2024-01-30T04:18:04;13.07;;;11.07;;
14939;SDS011;11825;51.898;8.202;2024-01-30T04:23:36;17.00;;;12.77;;
14939;SDS011;11825;51.898;8.202;2024-01-30T04:29:28;17.57;;;13.23;;
14939;SDS011;11825;51.898;8.202;2024-01-30T04:34:54;12.90;;;11.57;;
14939;SDS011;11825;51.898;8.202;2024-01-30T04:40:22;14.53;;;13.00;;
14939;SDS011;11825;51.898;8.202;2024-01-30T04:45:32;20.07;;;13.57;;
14939;SDS011;11825;51.898;8.202;2024-01-30T04:50:54;14.27;;;12.17;;
14939;SDS011;11825;51.898;8.202;2024-01-30T04:56:17;15.87;;;14.10;;
14939;SDS011;11825;51.898;8.202;2024-01-30T05:02:00;15.07;;;12.37;;
14939;SDS011;11825;51.898;8.202;2024-01-30T05:07:23;15.97;;;12.33;;
14939;SDS011;11825;51.898;8.202;2024-01-30T05:12:51;15.17;;;12.80;;
14939;SDS011;11825;51.898;8.202;2024-01-30T05:18:27;15.00;;;11.97;;
14939;SDS011;11825;51.898;8.202;2024-01-30T05:23:55;12.90;;;11.53;;
14939;SDS011;11825;51.898;8.202;2024-01-30T05:29:15;16.57;;;11.83;;
14939;SDS011;11825;51.898;8.202;2024-01-30T05:35:07;14.23;;;11.67;;
14939;SDS011;11825;51.898;8.202;2024-01-30T05:40:53;14.63;;;12.93;;
14939;SDS011;11825;51.898;8.202;2024-01-30T05:46:21;15.97;;;13.00;;
14939;SDS011;11825;51.898;8.202;2024-01-30T05:51:47;14.77;;;12.30;;
14939;SDS011;11825;51.898;8.202;2024-01-30T05:57:25;14.63;;;13.00;;
14939;SDS011;11825;51.898;8.202;2024-01-30T06:03:02;16.00;;;12.37;;
14939;SDS011;11825;51.898;8.202;2024-01-30T06:09:05;19.57;;;12.83;;
14939;SDS011;11825;51.898;8.202;2024-01-30T06:14:11;15.40;;;11.47;;
14939;SDS011;11825;51.898;8.202;2024-01-30T06:19:41;16.60;;;12.07;;
14939;SDS011;11825;51.898;8.202;2024-01-30T06:25:02;14.43;;;13.00;;
14939;SDS011;11825;51.898;8.202;2024-01-30T06:30:29;13.13;;;11.73;;
14939;SDS011;11825;51.898;8.202;2024-01-30T06:35:49;13.53;;;11.97;;
14939;SDS011;11825;51.898;8.202;2024-01-30T06:40:56;15.10;;;12.07;;
14939;SDS011;11825;51.898;8.202;2024-01-30T06:46:22;18.40;;;13.50;;
14939;SDS011;11825;51.898;8.202;2024-01-30T06:51:57;17.00;;;13.50;;
14939;SDS011;11825;51.898;8.202;2024-01-30T06:57:33;17.33;;;12.07;;
14939;SDS011;11825;51.898;8.202;2024-01-30T07:02:58;15.10;;;10.33;;
14939;SDS011;11825;51.898;8.202;2024-01-30T07:08:19;13.13;;;11.23;;
14939;SDS011;11825;51.898;8.202;2024-01-30T07:13:30;15.37;;;12.00;;
14939;SDS011;11825;51.898;8.202;2024-01-30T07:18:52;14.03;;;11.07;;
14939;SDS011;11825;51.898;8.202;2024-01-30T07:24:21;14.37;;;11.63;;
14939;SDS011;11825;51.898;8.202;2024-01-30T07:29:35;15.63;;;13.27;;
14939;SDS011;11825;51.898;8.202;2024-01-30T07:34:40;16.83;;;13.13;;
14939;SDS011;11825;51.898;8.202;2024-01-30T07:40:10;13.50;;;10.90;;
14939;SDS011;11825;51.898;8.202;2024-01-30T07:45:27;15.33;;;11.73;;
14939;SDS011;11825;51.898;8.202;2024-01-30T07:50:46;14.50;;;12.30;;
14939;SDS011;11825;51.898;8.202;2024-01-30T07:55:54;12.73;;;11.43;;
14939;SDS011;11825;51.898;8.202;2024-01-30T08:01:10;16.50;;;12.27;;
14939;SDS011;11825;51.898;8.202;2024-01-30T08:06:19;15.60;;;12.37;;
14939;SDS011;11825;51.898;8.202;2024-01-30T08:11:31;14.97;;;12.27;;
14939;SDS011;11825;51.898;8.202;2024-01-30T08:16:44;15.50;;;13.00;;
14939;SDS011;11825;51.898;8.202;2024-01-30T08:21:56;12.27;;;10.33;;
14939;SDS011;11825;51.898;8.202;2024-01-30T08:27:17;14.67;;;11.47;;
14939;SDS011;11825;51.898;8.202;2024-01-30T08:32:33;14.33;;;11.80;;
14939;SDS011;11825;51.898;8.202;2024-01-30T08:37:50;12.80;;;11.17;;
14939;SDS011;11825;51.898;8.202;2024-01-30T08:43:05;15.07;;;12.03;;
14939;SDS011;11825;51.898;8.202;2024-01-30T08:48:20;13.00;;;11.67;;
14939;SDS011;11825;51.898;8.202;2024-01-30T08:53:52;16.07;;;11.30;;
14939;SDS011;11825;51.898;8.202;2024-01-30T08:59:23;12.57;;;10.37;;
14939;SDS011;11825;51.898;8.202;2024-01-30T09:05:04;12.07;;;10.07;;
14939;SDS011;11825;51.898;8.202;2024-01-30T09:10:33;14.13;;;10.83;;
14939;SDS011;11825;51.898;8.202;2024-01-30T09:15:45;11.87;;;9.23;;
14939;SDS011;11825;51.898;8.202;2024-01-30T09:21:01;10.53;;;9.47;;
14939;SDS011;11825;51.898;8.202;2024-01-30T09:26:29;11.73;;;8.50;;
14939;SDS011;11825;51.898;8.202;2024-01-30T09:31:50;11.10;;;8.27;;
14939;SDS011;11825;51.898;8.202;2024-01-30T09:37:29;9.10;;;8.10;;
14939;SDS011;11825;51.898;8.202;2024-01-30T09:48:46;9.60;;;8.70;;
14939;SDS011;11825;51.898;8.202;2024-01-30T09:53:58;11.83;;;9.83;;
14939;SDS011;11825;51.898;8.202;2024-01-30T09:59:20;9.80;;;7.83;;
14939;SDS011;11825;51.898;8.202;2024-01-30T10:04:41;9.33;;;8.27;;
14939;SDS011;11825;51.898;8.202;2024-01-30T10:10:39;11.10;;;8.23;;
14939;SDS011;11825;51.898;8.202;2024-01-30T10:16:02;8.23;;;7.47;;
14939;SDS011;11825;51.898;8.202;2024-01-30T10:21:13;8.93;;;6.80;;
14939;SDS011;11825;51.898;8.202;2024-01-30T10:26:37;11.47;;;6.73;;
14939;SDS011;11825;51.898;8.202;2024-01-30T10:31:43;8.80;;;7.17;;
14939;SDS011;11825;51.898;8.202;2024-01-30T10:37:20;17.63;;;7.20;;
14939;SDS011;11825;51.898;8.202;2024-01-30T10:42:52;9.43;;;6.50;;
14939;SDS011;11825;51.898;8.202;2024-01-30T10:53:53;7.07;;;6.47;;
14939;SDS011;11825;51.898;8.202;2024-01-30T10:59:13;7.93;;;7.13;;
14939;SDS011;11825;51.898;8.202;2024-01-30T11:04:37;6.80;;;6.13;;
14939;SDS011;11825;51.898;8.202;2024-01-30T11:10:01;7.17;;;6.43;;
14939;SDS011;11825;51.898;8.202;2024-01-30T11:15:27;9.17;;;6.67;;
14939;SDS011;11825;51.898;8.202;2024-01-30T11:20:46;8.00;;;7.13;;
14939;SDS011;11825;51.898;8.202;2024-01-30T11:26:03;7.90;;;7.10;;
14939;SDS011;11825;51.898;8.202;2024-01-30T11:31:23;7.77;;;6.30;;
14939;SDS011;11825;51.898;8.202;2024-01-30T11:36:36;11.10;;;8.53;;
14939;SDS011;11825;51.898;8.202;2024-01-30T11:41:51;8.67;;;6.97;;
14939;SDS011;11825;51.898;8.202;2024-01-30T11:47:18;11.37;;;6.47;;
14939;SDS011;11825;51.898;8.202;2024-01-30T11:52:51;7.97;;;7.17;;
14939;SDS011;11825;51.898;8.202;2024-01-30T11:58:41;12.93;;;7.33;;
14939;SDS011;11825;51.898;8.202;2024-01-30T12:04:13;9.33;;;7.47;;
14939;SDS011;11825;51.898;8.202;2024-01-30T12:09:28;6.80;;;6.10;;
14939;SDS011;11825;51.898;8.202;2024-01-30T12:14:51;9.50;;;7.80;;
14939;SDS011;11825;51.898;8.202;2024-01-30T12:20:28;9.13;;;7.20;;
14939;SDS011;11825;51.898;8.202;2024-01-30T12:25:52;9.10;;;6.60;;
14939;SDS011;11825;51.898;8.202;2024-01-30T12:31:08;7.03;;;6.33;;
14939;SDS011;11825;51.898;8.202;2024-01-30T12:36:34;8.90;;;7.10;;
14939;SDS011;11825;51.898;8.202;2024-01-30T12:41:50;11.10;;;7.70;;
14939;SDS011;11825;51.898;8.202;2024-01-30T12:47:13;14.50;;;8.13;;
14939;SDS011;11825;51.898;8.202;2024-01-30T12:52:53;9.87;;;7.73;;
14939;SDS011;11825;51.898;8.202;2024-01-30T12:58:10;9.90;;;8.00;;
14939;SDS011;11825;51.898;8.202;2024-01-30T13:03:25;10.27;;;7.93;;
14939;SDS011;11825;51.898;8.202;2024-01-30T13:09:10;10.77;;;8.40;;
14939;SDS011;11825;51.898;8.202;2024-01-30T13:14:27;15.77;;;8.17;;
14939;SDS011;11825;51.898;8.202;2024-01-30T13:19:35;8.60;;;7.17;;
14939;SDS011;11825;51.898;8.202;2024-01-30T13:24:53;13.00;;;8.90;;
14939;SDS011;11825;51.898;8.202;2024-01-30T13:30:16;13.03;;;9.00;;
14939;SDS011;11825;51.898;8.202;2024-01-30T13:35:34;12.83;;;8.70;;
14939;SDS011;11825;51.898;8.202;2024-01-30T13:40:49;9.43;;;8.43;;
14939;SDS011;11825;51.898;8.202;2024-01-30T13:46:05;13.70;;;8.20;;
14939;SDS011;11825;51.898;8.202;2024-01-30T13:51:31;13.07;;;8.20;;
14939;SDS011;11825;51.898;8.202;2024-01-30T13:56:49;17.87;;;8.93;;
14939;SDS011;11825;51.898;8.202;2024-01-30T14:02:03;13.27;;;8.80;;
14939;SDS011;11825;51.898;8.202;2024-01-30T14:07:49;11.00;;;8.67;;
14939;SDS011;11825;51.898;8.202;2024-01-30T14:13:07;10.57;;;7.47;;
14939;SDS011;11825;51.898;8.202;2024-01-30T14:24:26;14.63;;;8.27;;
14939;SDS011;11825;51.898;8.202;2024-01-30T14:29:44;8.87;;;7.43;;
14939;SDS011;11825;51.898;8.202;2024-01-30T14:34:59;12.70;;;8.77;;
14939;SDS011;11825;51.898;8.202;2024-01-30T14:46:40;12.20;;;8.57;;
14939;SDS011;11825;51.898;8.202;2024-01-30T14:57:41;13.07;;;8.80;;
14939;SDS011;11825;51.898;8.202;2024-01-30T15:08:57;11.17;;;9.57;;
14939;SDS011;11825;51.898;8.202;2024-01-30T15:20:11;14.13;;;8.33;;
14939;SDS011;11825;51.898;8.202;2024-01-30T15:25:24;13.27;;;8.57;;
14939;SDS011;11825;51.898;8.202;2024-01-30T15:30:52;10.23;;;9.13;;
14939;SDS011;11825;51.898;8.202;2024-01-30T15:36:14;13.60;;;9.00;;
14939;SDS011;11825;51.898;8.202;2024-01-30T15:41:37;11.07;;;9.40;;
14939;SDS011;11825;51.898;8.202;2024-01-30T15:47:16;17.43;;;10.10;;
14939;SDS011;11825;51.898;8.202;2024-01-30T15:52:24;12.30;;;8.57;;
14939;SDS011;11825;51.898;8.202;2024-01-30T15:57:53;10.00;;;8.97;;
14939;SDS011;11825;51.898;8.202;2024-01-30T16:03:36;11.63;;;7.90;;
14939;SDS011;11825;51.898;8.202;2024-01-30T16:08:51;10.67;;;8.80;;
14939;SDS011;11825;51.898;8.202;2024-01-30T16:14:16;8.73;;;7.83;;
14939;SDS011;11825;51.898;8.202;2024-01-30T16:19:37;10.23;;;9.13;;
14939;SDS011;11825;51.898;8.202;2024-01-30T16:24:50;9.73;;;8.70;;
14939;SDS011;11825;51.898;8.202;2024-01-30T16:30:18;10.97;;;9.40;;
14939;SDS011;11825;51.898;8.202;2024-01-30T16:35:52;14.43;;;9.20;;
14939;SDS011;11825;51.898;8.202;2024-01-30T16:41:13;9.97;;;9.07;;
14939;SDS011;11825;51.898;8.202;2024-01-30T16:46:40;9.83;;;8.67;;
14939;SDS011;11825;51.898;8.202;2024-01-30T16:52:13;9.67;;;8.03;;
14939;SDS011;11825;51.898;8.202;2024-01-30T16:58:00;13.67;;;9.57;;
14939;SDS011;11825;51.898;8.202;2024-01-30T17:03:25;11.93;;;9.17;;
14939;SDS011;11825;51.898;8.202;2024-01-30T17:08:40;9.30;;;7.77;;
14939;SDS011;11825;51.898;8.202;2024-01-30T17:14:15;7.03;;;5.43;;
14939;SDS011;11825;51.898;8.202;2024-01-30T17:19:31;4.90;;;3.40;;
14939;SDS011;11825;51.898;8.202;2024-01-30T17:24:50;6.10;;;3.67;;
14939;SDS011;11825;51.898;8.202;2024-01-30T17:29:55;4.83;;;2.97;;
14939;SDS011;11825;51.898;8.202;2024-01-30T20:24:02;12.20;;;9.27;;
14939;SDS011;11825;51.898;8.202;2024-01-30T22:14:20;14.60;;;11.80;;
14939;SDS011;11825;51.898;8.202;2024-01-30T22:26:09;14.73;;;11.87;;
14939;SDS011;11825;51.898;8.202;2024-01-30T22:37:27;11.60;;;7.73;;
14939;SDS011;11825;51.898;8.202;2024-01-30T22:42:36;8.17;;;5.43;;
14939;SDS011;11825;51.898;8.202;2024-01-30T22:47:53;8.73;;;5.43;;
14939;SDS011;11825;51.898;8.202;2024-01-30T22:53:16;12.60;;;6.40;;
14939;SDS011;11825;51.898;8.202;2024-01-30T22:58:32;10.03;;;6.53;;
14939;SDS011;11825;51.898;8.202;2024-01-30T23:03:40;12.27;;;8.67;;
14939;SDS011;11825;51.898;8.202;2024-01-30T23:08:54;9.67;;;6.67;;
14939;SDS011;11825;51.898;8.202;2024-01-30T23:13:57;10.87;;;7.70;;
14939;SDS011;11825;51.898;8.202;2024-01-30T23:19:16;12.27;;;7.30;;
14939;SDS011;11825;51.898;8.202;2024-01-30T23:24:27;10.70;;;6.83;;
14939;SDS011;11825;51.898;8.202;2024-01-30T23:30:02;7.30;;;5.67;;
14939;SDS011;11825;51.898;8.202;2024-01-30T23:35:15;7.20;;;5.67;;
14939;SDS011;11825;51.898;8.202;2024-01-30T23:40:30;10.23;;;6.37;;
14939;SDS011;11825;51.898;8.202;2024-01-30T23:45:55;8.17;;;5.57;;
14939;SDS011;11825;51.898;8.202;2024-01-30T23:51:11;6.87;;;5.13;;
14939;SDS011;11825;51.898;8.202;2024-01-30T23:56:50;8.40;;;5.43;;
